Portada
METAR-TAF:

METAR-TAF

Aeroports :

Miri, Malàisia

latitud: 04-20N, longitud: 113-59E, altitud: 17 m

Observació

L'informe es va fer fa 28 minuts, a les 08:00 UTC
Vent 7 kt del Oest/Nord-Oest, variant entre Sud-Oest i Nord/Nord-Oest
Temperatura 31°C
Humitat 71%
Pressió 1006 hPa
Visibilitat 10 km o més
Escasses núvols a una alçada de 1600 ft

METAR: WBGR 280800Z 29007KT 230V340 9999 FEW016 31/25 Q1006

Hora: 16:28 (08:28 UTC)

Pronòstic

L'informe es va fer fa 3 hores i 28 minuts, a les 05:00 UTC
Pronòstic vàlid del 28 a les 06 UTC al 29 a les 06 UTC
Vent 5 kt del Oest
Visibilitat 10 km o més
Núvols disperses a una alçada de 1600 ft

TAF: WBGR 280500Z 2806/2906 26005KT 9999 SCT016

Observacions i pronòstics meteorològics de més de 4000 aeroports (METAR i TAF).

Les estacions disponibles són els punts grocs i vermells al mapa.

Posi el ratolí al punt desitjat per veure el nom de l'estació.

Feu clic per veure les observacions i els pronòstics meteorològics.

Per canviar el mapa: feu clic els botons verds amb una creu de color negre per apropar; al botó verd amb un guió per allunyar la imatge; o en les fletxes verdes per a mapes adjacents.


METAR-TAF: